sensor_id;sensor_type;location;lat;lon;timestamp;P1;durP1;ratioP1;P2;durP2;ratioP2
51981;SDS011;37998;53.416;6.730;2023-06-10T00:02:16;7.13;;;5.45;;
51981;SDS011;37998;53.416;6.730;2023-06-10T00:04:44;9.63;;;5.15;;
51981;SDS011;37998;53.416;6.730;2023-06-10T00:07:10;9.88;;;4.95;;
51981;SDS011;37998;53.416;6.730;2023-06-10T00:09:36;7.03;;;4.88;;
51981;SDS011;37998;53.416;6.730;2023-06-10T00:12:06;8.63;;;4.88;;
51981;SDS011;37998;53.416;6.730;2023-06-10T00:14:36;9.73;;;5.43;;
51981;SDS011;37998;53.416;6.730;2023-06-10T00:17:03;10.15;;;5.15;;
51981;SDS011;37998;53.416;6.730;2023-06-10T00:19:29;9.43;;;4.93;;
51981;SDS011;37998;53.416;6.730;2023-06-10T00:21:58;9.20;;;5.13;;
51981;SDS011;37998;53.416;6.730;2023-06-10T00:24:24;6.88;;;4.47;;
51981;SDS011;37998;53.416;6.730;2023-06-10T00:26:50;7.78;;;4.32;;
51981;SDS011;37998;53.416;6.730;2023-06-10T00:29:16;8.05;;;4.53;;
51981;SDS011;37998;53.416;6.730;2023-06-10T00:31:42;5.55;;;4.05;;
51981;SDS011;37998;53.416;6.730;2023-06-10T00:34:10;7.07;;;4.05;;
51981;SDS011;37998;53.416;6.730;2023-06-10T00:36:36;8.00;;;4.50;;
51981;SDS011;37998;53.416;6.730;2023-06-10T00:39:02;7.18;;;4.35;;
51981;SDS011;37998;53.416;6.730;2023-06-10T00:41:30;6.22;;;4.45;;
51981;SDS011;37998;53.416;6.730;2023-06-10T00:43:56;6.35;;;4.45;;
51981;SDS011;37998;53.416;6.730;2023-06-10T00:46:22;7.22;;;4.00;;
51981;SDS011;37998;53.416;6.730;2023-06-10T00:48:50;9.05;;;4.75;;
51981;SDS011;37998;53.416;6.730;2023-06-10T00:51:16;6.40;;;4.10;;
51981;SDS011;37998;53.416;6.730;2023-06-10T00:53:43;7.65;;;3.95;;
51981;SDS011;37998;53.416;6.730;2023-06-10T00:56:10;5.05;;;3.67;;
51981;SDS011;37998;53.416;6.730;2023-06-10T00:58:37;5.55;;;3.85;;
51981;SDS011;37998;53.416;6.730;2023-06-10T01:01:03;7.45;;;4.38;;
51981;SDS011;37998;53.416;6.730;2023-06-10T01:03:29;7.95;;;4.03;;
51981;SDS011;37998;53.416;6.730;2023-06-10T01:06:18;8.82;;;4.40;;
51981;SDS011;37998;53.416;6.730;2023-06-10T01:09:11;8.45;;;3.97;;
51981;SDS011;37998;53.416;6.730;2023-06-10T01:14:53;7.68;;;5.00;;
51981;SDS011;37998;53.416;6.730;2023-06-10T01:17:23;10.63;;;5.18;;
51981;SDS011;37998;53.416;6.730;2023-06-10T01:19:56;7.90;;;4.93;;
51981;SDS011;37998;53.416;6.730;2023-06-10T01:22:25;9.38;;;5.40;;
51981;SDS011;37998;53.416;6.730;2023-06-10T01:24:57;13.48;;;5.75;;
51981;SDS011;37998;53.416;6.730;2023-06-10T01:27:26;10.40;;;5.40;;
51981;SDS011;37998;53.416;6.730;2023-06-10T01:29:58;9.48;;;5.45;;
51981;SDS011;37998;53.416;6.730;2023-06-10T01:32:46;8.27;;;5.68;;
51981;SDS011;37998;53.416;6.730;2023-06-10T01:35:15;10.27;;;5.22;;
51981;SDS011;37998;53.416;6.730;2023-06-10T01:37:43;5.75;;;4.82;;
51981;SDS011;37998;53.416;6.730;2023-06-10T01:40:17;13.13;;;5.80;;
51981;SDS011;37998;53.416;6.730;2023-06-10T01:42:43;8.70;;;5.10;;
51981;SDS011;37998;53.416;6.730;2023-06-10T01:45:09;10.05;;;5.25;;
51981;SDS011;37998;53.416;6.730;2023-06-10T01:47:35;10.20;;;5.70;;
51981;SDS011;37998;53.416;6.730;2023-06-10T01:50:01;7.45;;;5.25;;
51981;SDS011;37998;53.416;6.730;2023-06-10T01:52:28;12.00;;;5.10;;
51981;SDS011;37998;53.416;6.730;2023-06-10T01:54:54;9.68;;;5.22;;
51981;SDS011;37998;53.416;6.730;2023-06-10T01:57:20;9.48;;;5.40;;
51981;SDS011;37998;53.416;6.730;2023-06-10T01:59:49;10.82;;;5.70;;
51981;SDS011;37998;53.416;6.730;2023-06-10T02:02:15;9.50;;;5.35;;
51981;SDS011;37998;53.416;6.730;2023-06-10T02:04:47;9.02;;;5.50;;
51981;SDS011;37998;53.416;6.730;2023-06-10T02:07:14;8.40;;;5.55;;
51981;SDS011;37998;53.416;6.730;2023-06-10T02:09:40;9.70;;;5.35;;
51981;SDS011;37998;53.416;6.730;2023-06-10T02:12:06;9.15;;;6.10;;
51981;SDS011;37998;53.416;6.730;2023-06-10T02:14:34;12.98;;;5.90;;
51981;SDS011;37998;53.416;6.730;2023-06-10T02:17:00;8.98;;;5.25;;
51981;SDS011;37998;53.416;6.730;2023-06-10T02:19:26;9.30;;;6.15;;
51981;SDS011;37998;53.416;6.730;2023-06-10T02:21:53;17.30;;;6.57;;
51981;SDS011;37998;53.416;6.730;2023-06-10T02:24:19;11.95;;;5.70;;
51981;SDS011;37998;53.416;6.730;2023-06-10T02:26:45;8.85;;;5.82;;
51981;SDS011;37998;53.416;6.730;2023-06-10T02:29:13;10.93;;;6.57;;
51981;SDS011;37998;53.416;6.730;2023-06-10T02:31:40;11.57;;;6.00;;
51981;SDS011;37998;53.416;6.730;2023-06-10T02:34:07;11.75;;;6.50;;
51981;SDS011;37998;53.416;6.730;2023-06-10T02:36:34;10.20;;;6.50;;
51981;SDS011;37998;53.416;6.730;2023-06-10T02:39:01;12.63;;;6.60;;
51981;SDS011;37998;53.416;6.730;2023-06-10T02:41:30;10.10;;;6.70;;
51981;SDS011;37998;53.416;6.730;2023-06-10T02:43:58;9.85;;;6.63;;
51981;SDS011;37998;53.416;6.730;2023-06-10T02:46:23;15.60;;;6.22;;
51981;SDS011;37998;53.416;6.730;2023-06-10T02:48:51;13.88;;;6.25;;
51981;SDS011;37998;53.416;6.730;2023-06-10T02:51:20;8.18;;;5.65;;
51981;SDS011;37998;53.416;6.730;2023-06-10T02:53:49;12.20;;;6.03;;
51981;SDS011;37998;53.416;6.730;2023-06-10T02:56:16;13.07;;;6.53;;
51981;SDS011;37998;53.416;6.730;2023-06-10T02:58:42;10.63;;;6.05;;
51981;SDS011;37998;53.416;6.730;2023-06-10T03:01:10;13.57;;;6.40;;
51981;SDS011;37998;53.416;6.730;2023-06-10T03:03:54;10.65;;;6.75;;
51981;SDS011;37998;53.416;6.730;2023-06-10T03:06:21;8.75;;;6.15;;
51981;SDS011;37998;53.416;6.730;2023-06-10T03:08:50;11.32;;;6.40;;
51981;SDS011;37998;53.416;6.730;2023-06-10T03:11:18;11.90;;;6.07;;
51981;SDS011;37998;53.416;6.730;2023-06-10T03:13:45;10.90;;;5.75;;
51981;SDS011;37998;53.416;6.730;2023-06-10T03:16:15;10.35;;;5.95;;
51981;SDS011;37998;53.416;6.730;2023-06-10T03:18:41;12.85;;;6.47;;
51981;SDS011;37998;53.416;6.730;2023-06-10T03:21:08;12.85;;;6.28;;
51981;SDS011;37998;53.416;6.730;2023-06-10T03:23:35;11.30;;;6.30;;
51981;SDS011;37998;53.416;6.730;2023-06-10T03:26:01;10.93;;;6.88;;
51981;SDS011;37998;53.416;6.730;2023-06-10T03:28:29;11.35;;;7.10;;
51981;SDS011;37998;53.416;6.730;2023-06-10T03:30:56;14.77;;;6.63;;
51981;SDS011;37998;53.416;6.730;2023-06-10T03:33:24;11.18;;;6.60;;
51981;SDS011;37998;53.416;6.730;2023-06-10T03:35:50;17.58;;;7.60;;
51981;SDS011;37998;53.416;6.730;2023-06-10T03:38:16;13.88;;;7.50;;
51981;SDS011;37998;53.416;6.730;2023-06-10T03:40:43;19.63;;;7.03;;
51981;SDS011;37998;53.416;6.730;2023-06-10T03:43:09;13.38;;;6.63;;
51981;SDS011;37998;53.416;6.730;2023-06-10T03:45:35;16.08;;;7.88;;
51981;SDS011;37998;53.416;6.730;2023-06-10T03:48:02;21.10;;;7.10;;
51981;SDS011;37998;53.416;6.730;2023-06-10T03:50:37;11.65;;;6.60;;
51981;SDS011;37998;53.416;6.730;2023-06-10T03:53:03;16.38;;;7.07;;
51981;SDS011;37998;53.416;6.730;2023-06-10T03:55:30;13.63;;;6.38;;
51981;SDS011;37998;53.416;6.730;2023-06-10T03:57:58;15.20;;;7.40;;
51981;SDS011;37998;53.416;6.730;2023-06-10T04:00:24;11.93;;;7.30;;
51981;SDS011;37998;53.416;6.730;2023-06-10T04:02:54;14.10;;;7.18;;
51981;SDS011;37998;53.416;6.730;2023-06-10T04:05:33;13.35;;;6.15;;
51981;SDS011;37998;53.416;6.730;2023-06-10T04:07:59;13.43;;;7.22;;
51981;SDS011;37998;53.416;6.730;2023-06-10T04:10:27;15.05;;;7.10;;
51981;SDS011;37998;53.416;6.730;2023-06-10T04:12:56;13.15;;;6.80;;
51981;SDS011;37998;53.416;6.730;2023-06-10T04:15:28;16.27;;;6.93;;
51981;SDS011;37998;53.416;6.730;2023-06-10T04:17:57;12.00;;;6.85;;
51981;SDS011;37998;53.416;6.730;2023-06-10T04:20:24;15.25;;;7.03;;
51981;SDS011;37998;53.416;6.730;2023-06-10T04:22:50;14.32;;;6.75;;
51981;SDS011;37998;53.416;6.730;2023-06-10T04:25:16;12.93;;;6.95;;
51981;SDS011;37998;53.416;6.730;2023-06-10T04:27:43;13.75;;;6.85;;
51981;SDS011;37998;53.416;6.730;2023-06-10T04:30:09;12.05;;;7.78;;
51981;SDS011;37998;53.416;6.730;2023-06-10T04:32:37;15.13;;;7.00;;
51981;SDS011;37998;53.416;6.730;2023-06-10T04:35:05;12.30;;;6.95;;
51981;SDS011;37998;53.416;6.730;2023-06-10T04:37:32;12.82;;;6.50;;
51981;SDS011;37998;53.416;6.730;2023-06-10T04:39:58;17.35;;;7.28;;
51981;SDS011;37998;53.416;6.730;2023-06-10T04:42:25;13.77;;;7.57;;
51981;SDS011;37998;53.416;6.730;2023-06-10T04:44:52;11.38;;;6.75;;
51981;SDS011;37998;53.416;6.730;2023-06-10T04:47:18;13.90;;;6.63;;
51981;SDS011;37998;53.416;6.730;2023-06-10T04:49:44;10.68;;;6.50;;
51981;SDS011;37998;53.416;6.730;2023-06-10T04:52:10;13.13;;;6.47;;
51981;SDS011;37998;53.416;6.730;2023-06-10T04:54:39;10.13;;;6.15;;
51981;SDS011;37998;53.416;6.730;2023-06-10T04:57:09;16.23;;;6.80;;
51981;SDS011;37998;53.416;6.730;2023-06-10T04:59:36;10.50;;;7.10;;
51981;SDS011;37998;53.416;6.730;2023-06-10T05:02:10;15.10;;;7.47;;
51981;SDS011;37998;53.416;6.730;2023-06-10T05:04:38;12.15;;;6.20;;
51981;SDS011;37998;53.416;6.730;2023-06-10T05:07:04;14.60;;;6.95;;
51981;SDS011;37998;53.416;6.730;2023-06-10T05:09:30;13.55;;;6.93;;
51981;SDS011;37998;53.416;6.730;2023-06-10T05:11:58;13.05;;;6.70;;
51981;SDS011;37998;53.416;6.730;2023-06-10T05:14:24;13.35;;;6.78;;
51981;SDS011;37998;53.416;6.730;2023-06-10T05:16:50;13.00;;;7.22;;
51981;SDS011;37998;53.416;6.730;2023-06-10T05:19:16;13.10;;;7.43;;
51981;SDS011;37998;53.416;6.730;2023-06-10T05:21:43;24.02;;;7.75;;
51981;SDS011;37998;53.416;6.730;2023-06-10T05:24:09;11.02;;;6.68;;
51981;SDS011;37998;53.416;6.730;2023-06-10T05:26:39;12.25;;;7.05;;
51981;SDS011;37998;53.416;6.730;2023-06-10T05:29:07;11.27;;;6.88;;
51981;SDS011;37998;53.416;6.730;2023-06-10T05:31:46;12.23;;;6.60;;
51981;SDS011;37998;53.416;6.730;2023-06-10T05:34:12;9.52;;;6.88;;
51981;SDS011;37998;53.416;6.730;2023-06-10T05:36:38;17.05;;;6.97;;
51981;SDS011;37998;53.416;6.730;2023-06-10T05:39:04;12.68;;;7.03;;
51981;SDS011;37998;53.416;6.730;2023-06-10T05:41:30;14.82;;;7.90;;
51981;SDS011;37998;53.416;6.730;2023-06-10T05:43:56;11.90;;;7.32;;
51981;SDS011;37998;53.416;6.730;2023-06-10T05:46:22;13.52;;;7.20;;
51981;SDS011;37998;53.416;6.730;2023-06-10T05:48:47;11.45;;;7.30;;
51981;SDS011;37998;53.416;6.730;2023-06-10T05:51:13;10.52;;;6.72;;
51981;SDS011;37998;53.416;6.730;2023-06-10T05:53:39;13.63;;;7.80;;
51981;SDS011;37998;53.416;6.730;2023-06-10T05:56:05;13.40;;;7.30;;
51981;SDS011;37998;53.416;6.730;2023-06-10T05:58:31;15.77;;;7.63;;
51981;SDS011;37998;53.416;6.730;2023-06-10T06:00:57;15.55;;;7.20;;
51981;SDS011;37998;53.416;6.730;2023-06-10T06:03:23;13.07;;;6.43;;
51981;SDS011;37998;53.416;6.730;2023-06-10T06:05:52;14.82;;;7.30;;
51981;SDS011;37998;53.416;6.730;2023-06-10T06:08:18;11.75;;;6.53;;
51981;SDS011;37998;53.416;6.730;2023-06-10T06:10:44;10.25;;;7.18;;
51981;SDS011;37998;53.416;6.730;2023-06-10T06:13:11;12.23;;;6.38;;
51981;SDS011;37998;53.416;6.730;2023-06-10T06:15:37;15.52;;;6.93;;
51981;SDS011;37998;53.416;6.730;2023-06-10T06:18:03;12.68;;;6.47;;
51981;SDS011;37998;53.416;6.730;2023-06-10T06:20:29;16.48;;;6.78;;
51981;SDS011;37998;53.416;6.730;2023-06-10T06:22:55;12.57;;;7.68;;
51981;SDS011;37998;53.416;6.730;2023-06-10T06:25:21;14.07;;;6.90;;
51981;SDS011;37998;53.416;6.730;2023-06-10T06:27:48;10.30;;;6.47;;
51981;SDS011;37998;53.416;6.730;2023-06-10T06:30:14;12.05;;;6.78;;
51981;SDS011;37998;53.416;6.730;2023-06-10T06:32:43;14.93;;;6.97;;
51981;SDS011;37998;53.416;6.730;2023-06-10T06:35:16;12.52;;;6.68;;
51981;SDS011;37998;53.416;6.730;2023-06-10T06:37:42;10.75;;;6.43;;
51981;SDS011;37998;53.416;6.730;2023-06-10T06:40:22;13.00;;;6.40;;
51981;SDS011;37998;53.416;6.730;2023-06-10T06:42:47;13.00;;;6.93;;
51981;SDS011;37998;53.416;6.730;2023-06-10T06:45:37;17.35;;;6.90;;
51981;SDS011;37998;53.416;6.730;2023-06-10T06:48:04;14.65;;;6.43;;
51981;SDS011;37998;53.416;6.730;2023-06-10T06:50:30;12.80;;;7.00;;
51981;SDS011;37998;53.416;6.730;2023-06-10T06:52:56;13.23;;;6.03;;
51981;SDS011;37998;53.416;6.730;2023-06-10T06:55:25;10.38;;;5.80;;
51981;SDS011;37998;53.416;6.730;2023-06-10T06:57:51;10.05;;;5.45;;
51981;SDS011;37998;53.416;6.730;2023-06-10T07:00:19;14.27;;;6.03;;
51981;SDS011;37998;53.416;6.730;2023-06-10T07:02:45;9.60;;;6.00;;
51981;SDS011;37998;53.416;6.730;2023-06-10T07:05:14;9.98;;;5.88;;
51981;SDS011;37998;53.416;6.730;2023-06-10T07:07:40;11.40;;;6.22;;
51981;SDS011;37998;53.416;6.730;2023-06-10T07:10:06;11.50;;;6.28;;
51981;SDS011;37998;53.416;6.730;2023-06-10T07:12:32;13.15;;;5.63;;
51981;SDS011;37998;53.416;6.730;2023-06-10T07:14:59;10.60;;;6.00;;
51981;SDS011;37998;53.416;6.730;2023-06-10T07:17:25;10.13;;;5.50;;
51981;SDS011;37998;53.416;6.730;2023-06-10T07:19:52;10.23;;;5.53;;
51981;SDS011;37998;53.416;6.730;2023-06-10T07:22:18;8.43;;;5.43;;
51981;SDS011;37998;53.416;6.730;2023-06-10T07:24:44;10.20;;;5.25;;
51981;SDS011;37998;53.416;6.730;2023-06-10T07:27:10;8.20;;;5.20;;
51981;SDS011;37998;53.416;6.730;2023-06-10T07:29:36;8.35;;;5.00;;
51981;SDS011;37998;53.416;6.730;2023-06-10T07:32:03;11.75;;;5.00;;
51981;SDS011;37998;53.416;6.730;2023-06-10T07:34:29;12.00;;;4.93;;
51981;SDS011;37998;53.416;6.730;2023-06-10T07:36:55;8.32;;;4.63;;
51981;SDS011;37998;53.416;6.730;2023-06-10T07:39:21;11.57;;;4.80;;
51981;SDS011;37998;53.416;6.730;2023-06-10T07:41:47;11.43;;;4.85;;
51981;SDS011;37998;53.416;6.730;2023-06-10T07:44:14;11.93;;;4.95;;
51981;SDS011;37998;53.416;6.730;2023-06-10T07:46:40;9.23;;;4.72;;
51981;SDS011;37998;53.416;6.730;2023-06-10T07:49:06;9.55;;;5.35;;
51981;SDS011;37998;53.416;6.730;2023-06-10T07:51:32;10.13;;;4.75;;
51981;SDS011;37998;53.416;6.730;2023-06-10T07:53:58;10.05;;;4.57;;
51981;SDS011;37998;53.416;6.730;2023-06-10T07:56:24;12.13;;;5.35;;
51981;SDS011;37998;53.416;6.730;2023-06-10T07:58:51;12.25;;;4.97;;
51981;SDS011;37998;53.416;6.730;2023-06-10T08:01:16;9.57;;;4.65;;
51981;SDS011;37998;53.416;6.730;2023-06-10T08:03:42;12.57;;;5.38;;
51981;SDS011;37998;53.416;6.730;2023-06-10T08:06:09;7.38;;;4.75;;
51981;SDS011;37998;53.416;6.730;2023-06-10T08:08:37;12.20;;;5.68;;
51981;SDS011;37998;53.416;6.730;2023-06-10T08:11:08;13.32;;;5.60;;
51981;SDS011;37998;53.416;6.730;2023-06-10T08:13:34;6.65;;;4.82;;
51981;SDS011;37998;53.416;6.730;2023-06-10T08:16:00;12.05;;;4.70;;
51981;SDS011;37998;53.416;6.730;2023-06-10T08:18:26;9.60;;;4.70;;
51981;SDS011;37998;53.416;6.730;2023-06-10T08:20:52;9.95;;;4.95;;
51981;SDS011;37998;53.416;6.730;2023-06-10T08:23:18;9.48;;;4.43;;
51981;SDS011;37998;53.416;6.730;2023-06-10T08:25:45;8.45;;;4.40;;
51981;SDS011;37998;53.416;6.730;2023-06-10T08:28:10;11.30;;;4.80;;
51981;SDS011;37998;53.416;6.730;2023-06-10T08:30:36;9.68;;;4.80;;
51981;SDS011;37998;53.416;6.730;2023-06-10T08:33:02;11.75;;;4.70;;
51981;SDS011;37998;53.416;6.730;2023-06-10T08:35:28;9.00;;;4.35;;
51981;SDS011;37998;53.416;6.730;2023-06-10T08:37:55;9.05;;;4.60;;
51981;SDS011;37998;53.416;6.730;2023-06-10T08:40:21;9.98;;;4.53;;
51981;SDS011;37998;53.416;6.730;2023-06-10T08:45:32;10.82;;;4.32;;
51981;SDS011;37998;53.416;6.730;2023-06-10T08:48:02;9.13;;;4.57;;
51981;SDS011;37998;53.416;6.730;2023-06-10T08:50:35;11.30;;;4.90;;
51981;SDS011;37998;53.416;6.730;2023-06-10T08:53:02;8.82;;;4.68;;
51981;SDS011;37998;53.416;6.730;2023-06-10T08:55:37;8.23;;;4.32;;
51981;SDS011;37998;53.416;6.730;2023-06-10T08:58:07;8.63;;;4.82;;
51981;SDS011;37998;53.416;6.730;2023-06-10T09:00:33;13.20;;;4.68;;
51981;SDS011;37998;53.416;6.730;2023-06-10T09:03:00;10.55;;;5.13;;
51981;SDS011;37998;53.416;6.730;2023-06-10T09:05:28;11.38;;;4.97;;
51981;SDS011;37998;53.416;6.730;2023-06-10T09:07:57;7.57;;;4.70;;
51981;SDS011;37998;53.416;6.730;2023-06-10T09:10:25;12.82;;;5.53;;
51981;SDS011;37998;53.416;6.730;2023-06-10T09:12:52;11.02;;;4.82;;
51981;SDS011;37998;53.416;6.730;2023-06-10T09:15:18;9.18;;;4.80;;
51981;SDS011;37998;53.416;6.730;2023-06-10T09:17:45;8.65;;;4.78;;
51981;SDS011;37998;53.416;6.730;2023-06-10T09:20:11;10.02;;;5.03;;
51981;SDS011;37998;53.416;6.730;2023-06-10T09:22:37;7.72;;;5.00;;
51981;SDS011;37998;53.416;6.730;2023-06-10T09:27:31;7.15;;;4.60;;
51981;SDS011;37998;53.416;6.730;2023-06-10T09:29:57;10.63;;;4.60;;
51981;SDS011;37998;53.416;6.730;2023-06-10T09:32:24;8.73;;;5.28;;
51981;SDS011;37998;53.416;6.730;2023-06-10T09:34:50;8.15;;;5.60;;
51981;SDS011;37998;53.416;6.730;2023-06-10T09:37:23;9.75;;;4.78;;
51981;SDS011;37998;53.416;6.730;2023-06-10T09:40:02;9.10;;;4.40;;
51981;SDS011;37998;53.416;6.730;2023-06-10T09:42:33;9.52;;;4.47;;
51981;SDS011;37998;53.416;6.730;2023-06-10T09:45:03;9.73;;;5.05;;
51981;SDS011;37998;53.416;6.730;2023-06-10T09:47:31;8.18;;;5.13;;
51981;SDS011;37998;53.416;6.730;2023-06-10T09:49:57;7.57;;;4.60;;
51981;SDS011;37998;53.416;6.730;2023-06-10T09:52:26;12.38;;;4.90;;
51981;SDS011;37998;53.416;6.730;2023-06-10T09:54:53;11.93;;;4.72;;
51981;SDS011;37998;53.416;6.730;2023-06-10T09:57:24;11.52;;;5.43;;
51981;SDS011;37998;53.416;6.730;2023-06-10T09:59:53;8.32;;;4.53;;
51981;SDS011;37998;53.416;6.730;2023-06-10T10:02:19;9.90;;;5.20;;
51981;SDS011;37998;53.416;6.730;2023-06-10T10:04:46;6.97;;;5.10;;
51981;SDS011;37998;53.416;6.730;2023-06-10T10:07:12;8.77;;;5.32;;
51981;SDS011;37998;53.416;6.730;2023-06-10T10:09:39;6.72;;;4.88;;
51981;SDS011;37998;53.416;6.730;2023-06-10T10:12:09;9.77;;;5.32;;
51981;SDS011;37998;53.416;6.730;2023-06-10T10:14:36;10.07;;;4.95;;
51981;SDS011;37998;53.416;6.730;2023-06-10T10:17:07;10.95;;;6.15;;
51981;SDS011;37998;53.416;6.730;2023-06-10T10:19:48;9.15;;;5.05;;
51981;SDS011;37998;53.416;6.730;2023-06-10T10:22:25;8.75;;;5.18;;
51981;SDS011;37998;53.416;6.730;2023-06-10T10:24:55;9.32;;;5.55;;
51981;SDS011;37998;53.416;6.730;2023-06-10T10:27:28;11.65;;;5.63;;
51981;SDS011;37998;53.416;6.730;2023-06-10T10:30:01;12.00;;;6.10;;
51981;SDS011;37998;53.416;6.730;2023-06-10T10:32:35;9.15;;;5.28;;
51981;SDS011;37998;53.416;6.730;2023-06-10T10:35:08;8.63;;;5.90;;
51981;SDS011;37998;53.416;6.730;2023-06-10T10:37:39;16.17;;;5.60;;
51981;SDS011;37998;53.416;6.730;2023-06-10T10:40:05;10.85;;;5.70;;
51981;SDS011;37998;53.416;6.730;2023-06-10T10:42:35;9.18;;;5.38;;
51981;SDS011;37998;53.416;6.730;2023-06-10T10:45:02;7.05;;;4.97;;
51981;SDS011;37998;53.416;6.730;2023-06-10T10:47:29;9.52;;;5.38;;
51981;SDS011;37998;53.416;6.730;2023-06-10T10:49:56;6.80;;;4.60;;
51981;SDS011;37998;53.416;6.730;2023-06-10T10:52:25;7.40;;;4.53;;
51981;SDS011;37998;53.416;6.730;2023-06-10T10:54:52;10.65;;;5.15;;
51981;SDS011;37998;53.416;6.730;2023-06-10T10:57:20;14.90;;;5.22;;
51981;SDS011;37998;53.416;6.730;2023-06-10T10:59:57;9.00;;;4.65;;
51981;SDS011;37998;53.416;6.730;2023-06-10T11:04:57;8.32;;;4.40;;
51981;SDS011;37998;53.416;6.730;2023-06-10T11:07:24;9.90;;;4.90;;
51981;SDS011;37998;53.416;6.730;2023-06-10T11:12:41;10.07;;;5.60;;
51981;SDS011;37998;53.416;6.730;2023-06-10T11:15:08;8.35;;;5.70;;
51981;SDS011;37998;53.416;6.730;2023-06-10T11:17:33;7.00;;;5.43;;
51981;SDS011;37998;53.416;6.730;2023-06-10T11:19:59;10.50;;;5.70;;
51981;SDS011;37998;53.416;6.730;2023-06-10T11:22:25;14.77;;;6.38;;
51981;SDS011;37998;53.416;6.730;2023-06-10T11:24:51;10.77;;;5.85;;
51981;SDS011;37998;53.416;6.730;2023-06-10T11:27:18;11.65;;;5.95;;
51981;SDS011;37998;53.416;6.730;2023-06-10T11:29:54;7.35;;;5.50;;
51981;SDS011;37998;53.416;6.730;2023-06-10T11:32:20;10.48;;;5.70;;
51981;SDS011;37998;53.416;6.730;2023-06-10T11:34:53;8.13;;;5.57;;
51981;SDS011;37998;53.416;6.730;2023-06-10T11:37:19;12.15;;;5.70;;
51981;SDS011;37998;53.416;6.730;2023-06-10T11:39:46;8.52;;;5.28;;
51981;SDS011;37998;53.416;6.730;2023-06-10T11:42:12;9.75;;;5.50;;
51981;SDS011;37998;53.416;6.730;2023-06-10T11:44:38;8.88;;;5.43;;
51981;SDS011;37998;53.416;6.730;2023-06-10T11:47:16;10.93;;;5.15;;
51981;SDS011;37998;53.416;6.730;2023-06-10T11:49:49;14.50;;;5.70;;
51981;SDS011;37998;53.416;6.730;2023-06-10T11:52:30;13.05;;;6.20;;
51981;SDS011;37998;53.416;6.730;2023-06-10T11:57:33;8.77;;;5.70;;
51981;SDS011;37998;53.416;6.730;2023-06-10T12:00:06;11.10;;;5.78;;
51981;SDS011;37998;53.416;6.730;2023-06-10T12:02:36;12.82;;;5.57;;
51981;SDS011;37998;53.416;6.730;2023-06-10T12:05:12;8.60;;;5.50;;
51981;SDS011;37998;53.416;6.730;2023-06-10T12:07:38;9.68;;;5.10;;
51981;SDS011;37998;53.416;6.730;2023-06-10T12:10:04;7.10;;;4.32;;
51981;SDS011;37998;53.416;6.730;2023-06-10T12:12:36;12.63;;;5.15;;
51981;SDS011;37998;53.416;6.730;2023-06-10T12:15:02;9.50;;;5.13;;
51981;SDS011;37998;53.416;6.730;2023-06-10T12:19:57;8.93;;;4.57;;
51981;SDS011;37998;53.416;6.730;2023-06-10T12:22:23;10.43;;;4.40;;
51981;SDS011;37998;53.416;6.730;2023-06-10T12:25:00;12.75;;;4.45;;
51981;SDS011;37998;53.416;6.730;2023-06-10T12:27:29;14.43;;;4.75;;
51981;SDS011;37998;53.416;6.730;2023-06-10T12:30:00;8.13;;;4.57;;
51981;SDS011;37998;53.416;6.730;2023-06-10T12:32:42;11.27;;;4.82;;
51981;SDS011;37998;53.416;6.730;2023-06-10T12:35:09;9.10;;;4.47;;
51981;SDS011;37998;53.416;6.730;2023-06-10T12:37:54;12.23;;;4.68;;
51981;SDS011;37998;53.416;6.730;2023-06-10T12:40:25;9.25;;;4.55;;
51981;SDS011;37998;53.416;6.730;2023-06-10T12:43:20;12.15;;;4.57;;
51981;SDS011;37998;53.416;6.730;2023-06-10T12:45:50;8.30;;;4.47;;
51981;SDS011;37998;53.416;6.730;2023-06-10T12:50:50;10.70;;;4.45;;
51981;SDS011;37998;53.416;6.730;2023-06-10T12:53:17;9.60;;;3.97;;
51981;SDS011;37998;53.416;6.730;2023-06-10T12:55:45;9.20;;;4.85;;
51981;SDS011;37998;53.416;6.730;2023-06-10T12:58:11;13.30;;;4.55;;
51981;SDS011;37998;53.416;6.730;2023-06-10T13:00:38;10.52;;;3.65;;
51981;SDS011;37998;53.416;6.730;2023-06-10T13:03:08;7.90;;;4.03;;
51981;SDS011;37998;53.416;6.730;2023-06-10T13:05:35;10.07;;;4.20;;
51981;SDS011;37998;53.416;6.730;2023-06-10T13:08:04;7.75;;;4.10;;
51981;SDS011;37998;53.416;6.730;2023-06-10T13:10:31;10.00;;;5.15;;
51981;SDS011;37998;53.416;6.730;2023-06-10T13:12:57;11.25;;;4.22;;
51981;SDS011;37998;53.416;6.730;2023-06-10T13:15:22;12.43;;;4.40;;
51981;SDS011;37998;53.416;6.730;2023-06-10T13:17:52;9.50;;;4.10;;
51981;SDS011;37998;53.416;6.730;2023-06-10T13:20:18;9.65;;;4.32;;
51981;SDS011;37998;53.416;6.730;2023-06-10T13:22:45;8.55;;;3.90;;
51981;SDS011;37998;53.416;6.730;2023-06-10T13:25:12;11.75;;;4.22;;
51981;SDS011;37998;53.416;6.730;2023-06-10T13:27:41;11.50;;;3.92;;
51981;SDS011;37998;53.416;6.730;2023-06-10T13:30:08;8.70;;;3.85;;
51981;SDS011;37998;53.416;6.730;2023-06-10T13:32:35;8.13;;;4.28;;
51981;SDS011;37998;53.416;6.730;2023-06-10T13:35:05;9.10;;;4.15;;
51981;SDS011;37998;53.416;6.730;2023-06-10T13:37:32;8.35;;;4.25;;
51981;SDS011;37998;53.416;6.730;2023-06-10T13:39:58;10.85;;;4.55;;
51981;SDS011;37998;53.416;6.730;2023-06-10T13:42:25;10.20;;;4.43;;
51981;SDS011;37998;53.416;6.730;2023-06-10T13:44:51;17.20;;;4.28;;
51981;SDS011;37998;53.416;6.730;2023-06-10T13:47:18;8.93;;;3.50;;
51981;SDS011;37998;53.416;6.730;2023-06-10T13:49:45;9.40;;;4.20;;
51981;SDS011;37998;53.416;6.730;2023-06-10T13:52:17;12.48;;;4.20;;
51981;SDS011;37998;53.416;6.730;2023-06-10T13:54:43;17.67;;;4.18;;
51981;SDS011;37998;53.416;6.730;2023-06-10T13:57:09;9.43;;;3.65;;
51981;SDS011;37998;53.416;6.730;2023-06-10T13:59:36;10.40;;;3.97;;
51981;SDS011;37998;53.416;6.730;2023-06-10T14:02:02;10.57;;;4.13;;
51981;SDS011;37998;53.416;6.730;2023-06-10T14:04:28;8.32;;;3.47;;
51981;SDS011;37998;53.416;6.730;2023-06-10T14:06:53;10.68;;;4.05;;
51981;SDS011;37998;53.416;6.730;2023-06-10T14:09:19;10.95;;;4.55;;
51981;SDS011;37998;53.416;6.730;2023-06-10T14:11:48;12.20;;;3.60;;
51981;SDS011;37998;53.416;6.730;2023-06-10T14:14:14;9.80;;;3.85;;
51981;SDS011;37998;53.416;6.730;2023-06-10T14:16:40;8.32;;;4.38;;
51981;SDS011;37998;53.416;6.730;2023-06-10T14:19:06;9.80;;;3.97;;
51981;SDS011;37998;53.416;6.730;2023-06-10T14:21:32;12.50;;;3.80;;
51981;SDS011;37998;53.416;6.730;2023-06-10T14:23:58;9.63;;;3.80;;
51981;SDS011;37998;53.416;6.730;2023-06-10T14:26:24;9.50;;;3.65;;
51981;SDS011;37998;53.416;6.730;2023-06-10T14:28:54;10.57;;;3.80;;
51981;SDS011;37998;53.416;6.730;2023-06-10T14:31:20;7.05;;;3.38;;
51981;SDS011;37998;53.416;6.730;2023-06-10T14:33:46;6.88;;;3.35;;
51981;SDS011;37998;53.416;6.730;2023-06-10T14:36:11;8.40;;;3.45;;
51981;SDS011;37998;53.416;6.730;2023-06-10T14:38:37;10.63;;;3.53;;
51981;SDS011;37998;53.416;6.730;2023-06-10T14:41:03;9.63;;;3.28;;
51981;SDS011;37998;53.416;6.730;2023-06-10T14:43:29;10.98;;;3.60;;
51981;SDS011;37998;53.416;6.730;2023-06-10T14:45:55;8.75;;;4.10;;
51981;SDS011;37998;53.416;6.730;2023-06-10T14:48:22;9.80;;;3.97;;
51981;SDS011;37998;53.416;6.730;2023-06-10T14:50:48;10.68;;;3.47;;
51981;SDS011;37998;53.416;6.730;2023-06-10T14:53:16;10.13;;;3.80;;
51981;SDS011;37998;53.416;6.730;2023-06-10T14:55:43;9.55;;;3.90;;
51981;SDS011;37998;53.416;6.730;2023-06-10T14:58:09;9.35;;;3.35;;
51981;SDS011;37998;53.416;6.730;2023-06-10T15:00:35;11.60;;;4.03;;
51981;SDS011;37998;53.416;6.730;2023-06-10T15:03:03;9.13;;;3.60;;
51981;SDS011;37998;53.416;6.730;2023-06-10T15:05:29;7.63;;;3.35;;
51981;SDS011;37998;53.416;6.730;2023-06-10T15:07:56;10.57;;;4.03;;